createdAt,value
2019-05-26T00:01:14.205Z,44.50
2019-05-26T00:03:45.932Z,47.70
2019-05-26T00:06:17.437Z,44.70
2019-05-26T00:08:49.678Z,44.90
2019-05-26T00:11:21.431Z,39.67
2019-05-26T00:13:54.918Z,24.77
2019-05-26T00:16:26.722Z,20.07
2019-05-26T00:18:59.143Z,17.73
2019-05-26T00:21:32.728Z,15.07
2019-05-26T00:24:04.240Z,20.43
2019-05-26T00:26:35.716Z,27.20
2019-05-26T00:29:07.498Z,28.40
2019-05-26T00:31:39.084Z,27.90
2019-05-26T00:34:10.598Z,24.37
2019-05-26T00:36:42.172Z,45.47
2019-05-26T00:39:13.675Z,50.20
2019-05-26T00:41:45.164Z,52.90
2019-05-26T00:44:16.672Z,51.53
2019-05-26T00:46:48.257Z,52.10
2019-05-26T00:49:19.724Z,53.40
2019-05-26T00:51:51.235Z,54.17
2019-05-26T00:54:23.217Z,51.97
2019-05-26T00:56:54.748Z,50.43
2019-05-26T00:59:26.327Z,52.33
2019-05-26T01:01:57.832Z,54.93
2019-05-26T01:04:29.396Z,56.33
2019-05-26T01:07:00.930Z,55.60
2019-05-26T01:09:32.579Z,54.87
2019-05-26T01:12:04.389Z,54.50
2019-05-26T01:14:35.859Z,53.00
2019-05-26T01:17:07.536Z,51.33
2019-05-26T01:19:40.483Z,49.60
2019-05-26T01:22:12.077Z,49.70
2019-05-26T01:24:43.659Z,50.27
2019-05-26T01:27:15.099Z,50.30
2019-05-26T01:29:47.698Z,51.67
2019-05-26T01:32:19.517Z,52.50
2019-05-26T01:34:51.071Z,51.93
2019-05-26T01:37:22.550Z,51.97
2019-05-26T01:39:55.937Z,53.03
2019-05-26T01:42:27.430Z,52.80
2019-05-26T01:44:58.985Z,54.20
2019-05-26T01:47:30.556Z,52.23
2019-05-26T01:50:01.973Z,52.20
2019-05-26T01:52:33.479Z,52.07
2019-05-26T01:55:05.197Z,52.43
2019-05-26T01:57:36.934Z,50.63
2019-05-26T02:00:10.070Z,50.73
2019-05-26T02:02:43.234Z,50.47
2019-05-26T02:05:14.868Z,48.60
2019-05-26T02:07:48.493Z,49.77
2019-05-26T02:10:20.878Z,51.63
2019-05-26T02:12:52.654Z,51.70
2019-05-26T02:15:24.937Z,50.23
2019-05-26T02:17:56.903Z,51.70
2019-05-26T02:20:31.090Z,49.60
2019-05-26T02:23:02.657Z,51.70
2019-05-26T02:25:34.578Z,50.40
2019-05-26T02:28:06.146Z,52.00
2019-05-26T02:30:37.903Z,50.53
2019-05-26T02:33:09.429Z,49.43
2019-05-26T02:35:42.929Z,49.53
2019-05-26T02:38:14.600Z,51.50
2019-05-26T02:40:46.345Z,50.07
2019-05-26T02:43:17.987Z,50.67
2019-05-26T02:45:50.535Z,50.93
2019-05-26T02:48:22.045Z,49.53
2019-05-26T02:50:53.491Z,48.93
2019-05-26T02:53:25.438Z,48.53
2019-05-26T02:55:57.635Z,46.87
2019-05-26T02:58:29.378Z,48.07
2019-05-26T03:01:00.951Z,46.20
2019-05-26T03:03:32.778Z,44.47
2019-05-26T03:06:05.225Z,45.73
2019-05-26T03:08:38.031Z,45.30
2019-05-26T03:11:11.656Z,44.67
2019-05-26T03:13:46.046Z,46.20
2019-05-26T03:16:20.919Z,45.63
2019-05-26T03:18:53.609Z,44.73
2019-05-26T03:21:27.641Z,45.47
2019-05-26T03:24:03.237Z,45.03
2019-05-26T03:26:35.798Z,42.43
2019-05-26T03:29:07.350Z,45.57
2019-05-26T03:31:38.881Z,44.27
2019-05-26T03:34:10.349Z,44.47
2019-05-26T03:36:44.404Z,45.70
2019-05-26T03:39:16.011Z,46.13
2019-05-26T03:41:47.610Z,44.23
2019-05-26T03:44:19.457Z,43.23
2019-05-26T03:46:50.927Z,43.70
2019-05-26T03:49:22.728Z,42.27
2019-05-26T03:51:54.249Z,43.27
2019-05-26T03:54:25.785Z,43.80
2019-05-26T03:56:57.308Z,44.00
2019-05-26T03:59:28.869Z,42.67
2019-05-26T04:02:00.583Z,43.43
2019-05-26T04:04:32.143Z,44.83
2019-05-26T04:07:03.691Z,43.13
2019-05-26T04:09:35.779Z,41.90
2019-05-26T04:12:07.595Z,42.10
2019-05-26T04:14:39.134Z,42.30
2019-05-26T04:17:10.922Z,43.13
2019-05-26T04:19:42.852Z,42.33
2019-05-26T04:22:16.014Z,42.53
2019-05-26T04:24:47.535Z,43.23
2019-05-26T04:27:19.137Z,42.70
2019-05-26T04:29:50.637Z,42.23
2019-05-26T04:32:22.129Z,42.63
2019-05-26T04:34:53.921Z,41.33
2019-05-26T04:37:25.439Z,42.03
2019-05-26T04:39:57.289Z,40.87
2019-05-26T04:42:28.714Z,41.10
2019-05-26T04:45:00.581Z,42.83
2019-05-26T04:47:32.325Z,41.87
2019-05-26T04:50:04.107Z,40.30
2019-05-26T04:52:35.807Z,41.67
2019-05-26T04:55:07.492Z,41.50
2019-05-26T04:57:39.018Z,41.03
2019-05-26T05:00:10.737Z,41.00
2019-05-26T05:02:42.166Z,40.93
2019-05-26T05:05:13.966Z,40.30
2019-05-26T05:07:45.452Z,40.33
2019-05-26T05:10:17.231Z,39.33
2019-05-26T05:12:48.784Z,39.20
2019-05-26T05:15:20.646Z,38.63
2019-05-26T05:17:52.408Z,39.30
2019-05-26T05:20:23.989Z,37.83
2019-05-26T05:22:55.555Z,38.83
2019-05-26T05:25:27.117Z,37.73
2019-05-26T05:28:00.524Z,37.13
2019-05-26T05:30:32.284Z,37.83
2019-05-26T05:33:03.882Z,37.50
2019-05-26T05:35:35.766Z,37.10
2019-05-26T05:38:07.218Z,36.30
2019-05-26T05:40:38.976Z,34.80
2019-05-26T05:43:10.439Z,34.80
2019-05-26T05:45:42.312Z,35.37
2019-05-26T05:48:14.022Z,35.27
2019-05-26T05:50:45.662Z,33.97
2019-05-26T05:53:18.837Z,34.93
2019-05-26T05:55:50.416Z,35.30
2019-05-26T05:58:22.149Z,33.00
2019-05-26T06:00:55.387Z,33.37
2019-05-26T06:03:27.435Z,33.57
2019-05-26T06:05:58.978Z,33.60
2019-05-26T06:08:30.631Z,33.40
2019-05-26T06:11:15.327Z,33.90
2019-05-26T06:13:35.376Z,33.33
2019-05-26T06:16:06.959Z,34.43
2019-05-26T06:18:38.448Z,33.47
2019-05-26T06:21:10.018Z,33.17
2019-05-26T06:23:41.592Z,31.40
2019-05-26T06:26:13.116Z,32.77
2019-05-26T06:28:44.827Z,32.13
2019-05-26T06:31:16.546Z,32.55
2019-05-26T06:33:48.279Z,33.63
2019-05-26T06:36:19.730Z,31.20
2019-05-26T06:38:51.243Z,31.53
2019-05-26T06:41:32.815Z,32.30
2019-05-26T06:43:56.031Z,33.40
2019-05-26T06:46:27.580Z,30.83
2019-05-26T06:48:59.602Z,30.85
2019-05-26T06:51:31.768Z,31.62
2019-05-26T06:54:03.531Z,30.72
2019-05-26T06:56:35.049Z,31.15
2019-05-26T06:59:06.872Z,29.87
2019-05-26T07:01:38.419Z,30.25
2019-05-26T07:04:12.107Z,29.85
2019-05-26T07:06:43.633Z,29.90
2019-05-26T07:09:15.158Z,30.60
2019-05-26T07:11:54.235Z,30.55
2019-05-26T07:14:19.877Z,31.33
2019-05-26T07:16:51.411Z,29.70
2019-05-26T07:19:23.073Z,30.08
2019-05-26T07:21:55.748Z,29.18
2019-05-26T07:24:29.463Z,30.92
2019-05-26T07:27:00.762Z,30.10
2019-05-26T07:29:32.473Z,29.37
2019-05-26T07:32:04.133Z,29.23
2019-05-26T07:34:35.870Z,29.57
2019-05-26T07:37:08.435Z,28.65
2019-05-26T07:39:40.158Z,29.23
2019-05-26T07:42:11.673Z,29.95
2019-05-26T07:44:43.607Z,29.18
2019-05-26T07:47:15.169Z,28.87
2019-05-26T07:49:46.781Z,28.17
2019-05-26T07:52:18.285Z,28.67
2019-05-26T07:54:50.138Z,28.57
2019-05-26T07:57:21.823Z,27.50
2019-05-26T07:59:53.530Z,26.02
2019-05-26T08:02:26.354Z,24.23
2019-05-26T08:04:58.024Z,24.70
2019-05-26T08:07:29.481Z,23.75
2019-05-26T08:10:03.261Z,22.82
2019-05-26T08:12:34.804Z,23.10
2019-05-26T08:15:09.221Z,22.48
2019-05-26T08:17:41.503Z,22.55
2019-05-26T08:20:13.759Z,21.00
2019-05-26T08:22:45.196Z,19.65
2019-05-26T08:25:17.565Z,20.62
2019-05-26T08:27:49.123Z,18.77
2019-05-26T08:30:21.151Z,18.50
2019-05-26T08:32:52.670Z,14.83
2019-05-26T08:35:24.557Z,14.60
2019-05-26T08:37:58.583Z,14.23
2019-05-26T08:40:31.059Z,12.18
2019-05-26T08:43:02.939Z,11.15
2019-05-26T08:45:34.986Z,10.63
2019-05-26T08:48:07.011Z,9.68
2019-05-26T08:50:38.681Z,9.68
2019-05-26T08:53:11.454Z,9.63
2019-05-26T08:55:43.012Z,8.85
2019-05-26T08:58:16.793Z,9.03
2019-05-26T09:00:48.340Z,8.80
2019-05-26T09:03:20.112Z,9.08
2019-05-26T09:05:51.631Z,9.88
2019-05-26T09:08:23.387Z,8.95
2019-05-26T09:10:55.104Z,9.28
2019-05-26T09:13:26.600Z,10.00
2019-05-26T09:15:58.178Z,9.80
2019-05-26T09:18:29.733Z,9.40
2019-05-26T09:21:01.200Z,9.08
2019-05-26T09:23:33.747Z,9.53
2019-05-26T09:26:05.600Z,10.10
2019-05-26T09:28:37.141Z,9.93
2019-05-26T09:31:08.772Z,9.28
2019-05-26T09:33:40.326Z,9.25
2019-05-26T09:36:11.954Z,10.15
2019-05-26T09:38:43.454Z,9.95
2019-05-26T09:41:14.944Z,9.85
2019-05-26T09:43:46.531Z,9.38
2019-05-26T09:46:19.326Z,10.05
2019-05-26T09:48:50.841Z,10.43
2019-05-26T09:51:25.504Z,11.38
2019-05-26T09:54:01.719Z,10.78
2019-05-26T09:56:30.303Z,10.78
2019-05-26T09:59:01.794Z,11.55
2019-05-26T10:01:33.614Z,10.93
2019-05-26T10:04:05.327Z,10.18
2019-05-26T10:06:36.806Z,10.60
2019-05-26T10:09:10.147Z,11.10
2019-05-26T10:11:41.920Z,10.30
2019-05-26T10:14:13.340Z,10.28
2019-05-26T10:16:44.770Z,10.40
2019-05-26T10:19:16.460Z,10.48
2019-05-26T10:21:47.993Z,10.78
2019-05-26T10:24:20.825Z,8.65
2019-05-26T10:26:53.562Z,9.05
2019-05-26T10:29:28.830Z,9.78
2019-05-26T10:32:00.318Z,9.30
2019-05-26T10:34:31.911Z,9.85
2019-05-26T10:37:03.677Z,9.93
2019-05-26T10:39:35.278Z,10.28
2019-05-26T10:42:07.276Z,8.45
2019-05-26T10:44:41.642Z,9.50
2019-05-26T10:47:13.382Z,9.63
2019-05-26T10:49:44.895Z,8.98
2019-05-26T10:52:16.476Z,8.78
2019-05-26T10:54:48.070Z,8.40
2019-05-26T10:57:20.718Z,8.85
2019-05-26T10:59:52.459Z,8.20
2019-05-26T11:02:24.177Z,8.38
2019-05-26T11:04:56.100Z,8.85
2019-05-26T11:07:27.738Z,8.48
2019-05-26T11:10:00.031Z,8.75
2019-05-26T11:12:31.809Z,7.72
2019-05-26T11:15:06.320Z,7.78
2019-05-26T11:17:38.021Z,7.47
2019-05-26T11:20:10.221Z,7.87
2019-05-26T11:22:41.764Z,7.95
2019-05-26T11:25:13.989Z,7.42
2019-05-26T11:27:45.588Z,7.40
2019-05-26T11:30:18.492Z,7.28
2019-05-26T11:32:50.049Z,7.90
2019-05-26T11:35:21.614Z,7.10
2019-05-26T11:37:53.304Z,6.47
2019-05-26T11:40:25.047Z,6.87
2019-05-26T11:42:56.477Z,7.65
2019-05-26T11:45:28.596Z,6.97
2019-05-26T11:48:00.147Z,7.95
2019-05-26T11:50:31.758Z,7.03
2019-05-26T11:53:03.512Z,7.28
2019-05-26T11:55:35.339Z,6.87
2019-05-26T11:58:06.871Z,6.90
2019-05-26T12:00:38.500Z,6.67
2019-05-26T12:03:09.985Z,6.65
2019-05-26T12:05:41.528Z,6.15
2019-05-26T12:08:13.024Z,7.12
2019-05-26T12:10:44.740Z,6.67
2019-05-26T12:13:16.454Z,6.12
2019-05-26T12:15:47.935Z,6.60
2019-05-26T12:18:19.735Z,6.70
2019-05-26T12:20:51.266Z,6.37
2019-05-26T12:23:22.858Z,6.20
2019-05-26T12:25:54.570Z,6.37
2019-05-26T12:28:26.297Z,5.70
2019-05-26T12:30:57.829Z,6.28
2019-05-26T12:33:29.495Z,5.40
2019-05-26T12:36:01.336Z,4.72
2019-05-26T12:38:34.633Z,5.12
2019-05-26T12:41:08.174Z,5.25
2019-05-26T12:43:39.628Z,4.92
2019-05-26T12:46:11.447Z,4.90
2019-05-26T12:48:43.046Z,4.75
2019-05-26T12:51:14.875Z,3.87
2019-05-26T12:53:46.299Z,3.90
2019-05-26T12:56:17.881Z,3.70
2019-05-26T12:58:50.296Z,3.37
2019-05-26T13:01:21.970Z,3.67
2019-05-26T13:03:53.499Z,3.60
2019-05-26T13:06:26.599Z,3.92
2019-05-26T13:08:58.617Z,3.55
2019-05-26T13:11:30.092Z,4.00
2019-05-26T13:14:01.579Z,3.35
2019-05-26T13:16:35.838Z,3.67
2019-05-26T13:19:06.870Z,3.27
2019-05-26T13:21:38.523Z,3.52
2019-05-26T13:24:10.347Z,3.60
2019-05-26T13:26:42.787Z,3.17
2019-05-26T13:29:14.296Z,3.90
2019-05-26T13:31:45.766Z,3.77
2019-05-26T13:34:17.409Z,3.65
2019-05-26T13:36:48.975Z,3.50
2019-05-26T13:39:20.640Z,3.22
2019-05-26T13:41:55.811Z,3.77
2019-05-26T13:44:27.425Z,3.47
2019-05-26T13:46:59.160Z,3.42
2019-05-26T13:49:30.768Z,3.37
2019-05-26T13:52:02.344Z,3.22
2019-05-26T13:54:33.855Z,3.15
2019-05-26T13:57:06.926Z,2.75
2019-05-26T13:59:38.793Z,3.60
2019-05-26T14:02:10.321Z,3.00
2019-05-26T14:04:41.894Z,3.52
2019-05-26T14:07:13.461Z,3.35
2019-05-26T14:09:45.033Z,3.22
2019-05-26T14:12:16.562Z,2.83
2019-05-26T14:14:48.335Z,3.02
2019-05-26T14:17:19.976Z,2.85
2019-05-26T14:19:53.751Z,2.95
2019-05-26T14:22:25.335Z,3.85
2019-05-26T14:24:56.911Z,3.67
2019-05-26T14:27:30.441Z,3.83
2019-05-26T14:30:02.315Z,3.65
2019-05-26T14:32:33.922Z,4.10
2019-05-26T14:35:06.973Z,4.05
2019-05-26T14:37:38.560Z,3.90
2019-05-26T14:40:11.378Z,4.42
2019-05-26T14:42:42.919Z,4.45
2019-05-26T14:45:14.788Z,4.22
2019-05-26T14:47:46.534Z,4.70
2019-05-26T14:50:18.949Z,4.25
2019-05-26T14:52:51.428Z,4.83
2019-05-26T14:55:23.018Z,4.17
2019-05-26T14:57:54.648Z,4.50
2019-05-26T15:00:26.587Z,4.20
2019-05-26T15:02:58.125Z,4.30
2019-05-26T15:05:29.866Z,4.15
2019-05-26T15:08:01.922Z,4.28
2019-05-26T15:10:33.499Z,4.30
2019-05-26T15:13:05.272Z,4.78
2019-05-26T15:15:36.831Z,4.97
2019-05-26T15:18:08.473Z,4.55
2019-05-26T15:20:40.062Z,5.15
2019-05-26T15:23:11.831Z,4.30
2019-05-26T15:25:45.047Z,5.08
2019-05-26T15:28:16.595Z,4.80
2019-05-26T15:30:48.139Z,4.83
2019-05-26T15:33:19.668Z,5.10
2019-05-26T15:35:51.170Z,5.30
2019-05-26T15:38:22.771Z,4.70
2019-05-26T15:40:54.274Z,5.17
2019-05-26T15:43:25.912Z,4.83
2019-05-26T15:45:57.452Z,4.83
2019-05-26T15:48:32.102Z,4.90
2019-05-26T15:51:03.701Z,4.92
2019-05-26T15:53:35.304Z,4.70
2019-05-26T15:56:06.885Z,4.10
2019-05-26T15:58:38.494Z,4.80
2019-05-26T16:01:10.028Z,4.42
2019-05-26T16:03:41.560Z,5.10
2019-05-26T16:06:13.358Z,4.97
2019-05-26T16:08:44.875Z,4.80
2019-05-26T16:11:16.469Z,4.40
2019-05-26T16:13:48.113Z,4.97
2019-05-26T16:16:19.825Z,5.53
2019-05-26T16:18:52.289Z,5.00
2019-05-26T16:21:27.914Z,4.33
2019-05-26T16:23:57.603Z,4.75
2019-05-26T16:26:29.101Z,4.87
2019-05-26T16:29:01.966Z,4.85
2019-05-26T16:31:33.468Z,4.62
2019-05-26T16:34:06.314Z,5.20
2019-05-26T16:36:38.150Z,5.30
2019-05-26T16:39:09.713Z,4.50
2019-05-26T16:41:41.227Z,5.05
2019-05-26T16:44:12.811Z,4.40
2019-05-26T16:46:55.926Z,4.90
2019-05-26T16:49:19.212Z,4.72
2019-05-26T16:51:50.747Z,5.15
2019-05-26T16:54:22.336Z,4.00
2019-05-26T16:56:53.918Z,4.70
2019-05-26T16:59:25.645Z,4.00
2019-05-26T17:01:57.157Z,4.10
2019-05-26T17:04:28.921Z,4.90
2019-05-26T17:07:00.836Z,4.10
2019-05-26T17:09:34.131Z,5.80
2019-05-26T17:12:06.338Z,4.50
2019-05-26T17:14:37.911Z,4.45
2019-05-26T17:17:14.874Z,5.10
2019-05-26T17:19:43.152Z,5.60
2019-05-26T17:22:14.915Z,4.58
2019-05-26T17:24:46.625Z,5.20
2019-05-26T17:27:20.229Z,5.72
2019-05-26T17:29:52.877Z,5.53
2019-05-26T17:32:24.767Z,5.58
2019-05-26T17:34:56.930Z,5.12
2019-05-26T17:37:28.843Z,4.95
2019-05-26T17:40:00.427Z,5.70
2019-05-26T17:42:33.223Z,5.25
2019-05-26T17:45:05.285Z,6.42
2019-05-26T17:47:36.836Z,6.92
2019-05-26T17:50:09.189Z,5.92
2019-05-26T17:52:40.847Z,5.90
2019-05-26T17:55:13.047Z,5.47
2019-05-26T17:57:46.012Z,5.72
2019-05-26T18:00:18.099Z,5.87
2019-05-26T18:02:49.824Z,6.25
2019-05-26T18:05:21.554Z,6.00
2019-05-26T18:07:53.258Z,5.80
2019-05-26T18:10:24.944Z,5.20
2019-05-26T18:12:59.580Z,5.55
2019-05-26T18:15:31.395Z,6.10
2019-05-26T18:18:04.262Z,5.83
2019-05-26T18:20:36.236Z,6.95
2019-05-26T18:23:10.187Z,6.83
2019-05-26T18:25:41.750Z,6.90
2019-05-26T18:28:13.354Z,7.00
2019-05-26T18:30:46.933Z,7.62
2019-05-26T18:33:18.547Z,8.18
2019-05-26T18:35:50.165Z,8.70
2019-05-26T18:38:21.829Z,8.95
2019-05-26T18:40:53.613Z,11.10
2019-05-26T18:43:25.188Z,10.48
2019-05-26T18:45:56.792Z,10.45
2019-05-26T18:48:28.544Z,11.68
2019-05-26T18:51:00.172Z,11.60
2019-05-26T18:53:31.768Z,12.10
2019-05-26T18:56:03.655Z,11.97
2019-05-26T18:58:35.652Z,12.35
2019-05-26T19:01:07.648Z,12.18
2019-05-26T19:03:39.269Z,13.08
2019-05-26T19:06:11.005Z,11.78
2019-05-26T19:08:42.596Z,12.55
2019-05-26T19:11:14.354Z,12.40
2019-05-26T19:13:46.364Z,11.20
2019-05-26T19:16:17.901Z,13.18
2019-05-26T19:18:49.410Z,13.60
2019-05-26T19:21:22.728Z,13.83
2019-05-26T19:23:54.513Z,13.32
2019-05-26T19:26:26.235Z,14.75
2019-05-26T19:28:58.342Z,15.05
2019-05-26T19:31:30.213Z,15.93
2019-05-26T19:34:01.830Z,16.60
2019-05-26T19:36:33.371Z,17.07
2019-05-26T19:39:07.337Z,16.87
2019-05-26T19:41:39.587Z,17.82
2019-05-26T19:44:11.418Z,18.70
2019-05-26T19:46:43.165Z,19.47
2019-05-26T19:49:14.771Z,19.43
2019-05-26T19:51:46.642Z,18.40
2019-05-26T19:54:18.252Z,17.07
2019-05-26T19:56:50.036Z,17.47
2019-05-26T19:59:21.663Z,15.87
2019-05-26T20:01:53.341Z,16.03
2019-05-26T20:04:24.932Z,15.97
2019-05-26T20:06:57.891Z,15.40
2019-05-26T20:09:29.896Z,15.07
2019-05-26T20:12:01.540Z,12.40
2019-05-26T20:14:33.501Z,12.83
2019-05-26T20:17:05.458Z,12.57
2019-05-26T20:19:37.042Z,12.45
2019-05-26T20:22:08.641Z,11.85
2019-05-26T20:24:40.260Z,11.73
2019-05-26T20:27:12.105Z,12.57
2019-05-26T20:29:43.906Z,12.17
2019-05-26T20:32:16.753Z,13.03
2019-05-26T20:34:48.292Z,12.50
2019-05-26T20:37:20.317Z,12.27
2019-05-26T20:39:51.868Z,11.55
2019-05-26T20:42:25.062Z,11.83
2019-05-26T20:44:56.985Z,10.50
2019-05-26T20:47:28.859Z,11.30
2019-05-26T20:50:00.676Z,12.07
2019-05-26T20:52:32.563Z,12.40
2019-05-26T20:55:04.579Z,13.17
2019-05-26T20:57:36.722Z,13.07
2019-05-26T21:00:10.244Z,12.83
2019-05-26T21:02:45.645Z,13.58
2019-05-26T21:05:18.435Z,14.33
2019-05-26T21:07:50.405Z,13.67
2019-05-26T21:10:22.308Z,13.43
2019-05-26T21:12:54.569Z,12.83
2019-05-26T21:15:26.498Z,14.05
2019-05-26T21:17:58.228Z,13.83
2019-05-26T21:20:29.987Z,13.97
2019-05-26T21:23:01.643Z,13.93
2019-05-26T21:25:33.420Z,15.50
2019-05-26T21:28:05.003Z,16.70
2019-05-26T21:30:36.971Z,17.80
2019-05-26T21:33:08.908Z,17.07
2019-05-26T21:35:40.662Z,16.00
2019-05-26T21:38:12.278Z,16.93
2019-05-26T21:40:43.936Z,17.10
2019-05-26T21:43:15.662Z,17.40
2019-05-26T21:45:47.563Z,16.80
2019-05-26T21:48:19.342Z,17.20
2019-05-26T21:50:50.917Z,16.27
2019-05-26T21:53:22.542Z,16.97
2019-05-26T21:55:54.392Z,17.17
2019-05-26T21:58:26.250Z,17.43
2019-05-26T22:00:57.930Z,16.03
2019-05-26T22:03:30.146Z,17.47
2019-05-26T22:06:01.871Z,17.35
2019-05-26T22:08:33.501Z,17.90
2019-05-26T22:11:05.499Z,17.20
2019-05-26T22:13:37.333Z,17.60
2019-05-26T22:16:08.925Z,16.53
2019-05-26T22:18:40.521Z,17.05
2019-05-26T22:21:12.092Z,16.65
2019-05-26T22:23:43.936Z,17.43
2019-05-26T22:26:15.957Z,16.50
2019-05-26T22:28:47.524Z,15.70
2019-05-26T22:31:19.388Z,16.10
2019-05-26T22:33:51.071Z,15.00
2019-05-26T22:36:22.908Z,15.80
2019-05-26T22:38:54.767Z,16.80
2019-05-26T22:41:26.319Z,15.40
2019-05-26T22:43:57.892Z,13.73
2019-05-26T22:46:29.506Z,12.27
2019-05-26T22:49:01.089Z,11.13
2019-05-26T22:51:32.629Z,10.83
2019-05-26T22:54:04.564Z,10.50
2019-05-26T22:56:36.355Z,9.70
2019-05-26T22:59:07.989Z,9.80
2019-05-26T23:01:39.570Z,9.60
2019-05-26T23:04:11.400Z,10.90
2019-05-26T23:06:42.919Z,10.97
2019-05-26T23:09:14.856Z,11.97
2019-05-26T23:11:46.470Z,13.60
2019-05-26T23:14:18.423Z,13.83
2019-05-26T23:16:50.083Z,14.03
2019-05-26T23:19:21.656Z,14.40
2019-05-26T23:21:53.645Z,12.03
2019-05-26T23:24:25.258Z,13.83
2019-05-26T23:26:56.772Z,13.10
2019-05-26T23:29:28.461Z,12.57
2019-05-26T23:32:00.061Z,13.17
2019-05-26T23:34:31.667Z,11.70
2019-05-26T23:37:03.676Z,11.83
2019-05-26T23:39:35.594Z,11.77
2019-05-26T23:42:09.185Z,11.57
2019-05-26T23:44:40.841Z,11.63
2019-05-26T23:47:12.423Z,10.30
2019-05-26T23:49:46.157Z,10.63
2019-05-26T23:52:19.442Z,10.63
2019-05-26T23:54:51.002Z,9.70
2019-05-26T23:57:22.614Z,10.03
2019-05-26T23:59:54.198Z,9.80
